sensor_id;sensor_type;location;lat;lon;timestamp;P1;durP1;ratioP1;P2;durP2;ratioP2
13443;SDS011;6794;59.218;18.218;2023-02-12T00:01:08;27.03;;;13.57;;
13443;SDS011;6794;59.218;18.218;2023-02-12T00:03:34;27.67;;;14.02;;
13443;SDS011;6794;59.218;18.218;2023-02-12T00:06:00;21.30;;;12.20;;
13443;SDS011;6794;59.218;18.218;2023-02-12T00:08:26;23.83;;;13.70;;
13443;SDS011;6794;59.218;18.218;2023-02-12T00:10:52;25.80;;;13.88;;
13443;SDS011;6794;59.218;18.218;2023-02-12T00:13:18;25.45;;;12.88;;
13443;SDS011;6794;59.218;18.218;2023-02-12T00:15:44;23.77;;;11.23;;
13443;SDS011;6794;59.218;18.218;2023-02-12T00:18:10;24.67;;;12.32;;
13443;SDS011;6794;59.218;18.218;2023-02-12T00:20:37;26.73;;;13.23;;
13443;SDS011;6794;59.218;18.218;2023-02-12T00:23:03;25.23;;;12.20;;
13443;SDS011;6794;59.218;18.218;2023-02-12T00:25:29;22.50;;;12.18;;
13443;SDS011;6794;59.218;18.218;2023-02-12T00:27:55;24.53;;;12.53;;
13443;SDS011;6794;59.218;18.218;2023-02-12T00:30:21;20.63;;;12.30;;
13443;SDS011;6794;59.218;18.218;2023-02-12T00:32:47;23.58;;;12.18;;
13443;SDS011;6794;59.218;18.218;2023-02-12T00:35:13;25.27;;;12.73;;
13443;SDS011;6794;59.218;18.218;2023-02-12T00:37:40;24.20;;;12.15;;
13443;SDS011;6794;59.218;18.218;2023-02-12T00:40:06;24.70;;;12.18;;
13443;SDS011;6794;59.218;18.218;2023-02-12T00:42:32;26.88;;;16.25;;
13443;SDS011;6794;59.218;18.218;2023-02-12T00:44:58;22.05;;;13.20;;
13443;SDS011;6794;59.218;18.218;2023-02-12T00:47:24;26.45;;;13.27;;
13443;SDS011;6794;59.218;18.218;2023-02-12T00:49:50;23.57;;;11.93;;
13443;SDS011;6794;59.218;18.218;2023-02-12T00:52:16;22.23;;;11.93;;
13443;SDS011;6794;59.218;18.218;2023-02-12T00:54:42;21.37;;;11.90;;
13443;SDS011;6794;59.218;18.218;2023-02-12T00:57:08;19.92;;;10.90;;
13443;SDS011;6794;59.218;18.218;2023-02-12T00:59:34;24.70;;;12.13;;
13443;SDS011;6794;59.218;18.218;2023-02-12T01:02:01;21.60;;;11.27;;
13443;SDS011;6794;59.218;18.218;2023-02-12T01:04:28;24.52;;;12.10;;
13443;SDS011;6794;59.218;18.218;2023-02-12T01:06:54;21.50;;;11.82;;
13443;SDS011;6794;59.218;18.218;2023-02-12T01:09:20;22.02;;;10.75;;
13443;SDS011;6794;59.218;18.218;2023-02-12T01:11:46;21.92;;;10.98;;
13443;SDS011;6794;59.218;18.218;2023-02-12T01:14:12;20.90;;;10.20;;
13443;SDS011;6794;59.218;18.218;2023-02-12T01:16:38;22.98;;;11.75;;
13443;SDS011;6794;59.218;18.218;2023-02-12T01:19:04;19.83;;;11.32;;
13443;SDS011;6794;59.218;18.218;2023-02-12T01:21:31;20.75;;;10.45;;
13443;SDS011;6794;59.218;18.218;2023-02-12T01:23:58;19.63;;;9.75;;
13443;SDS011;6794;59.218;18.218;2023-02-12T01:26:24;16.98;;;8.98;;
13443;SDS011;6794;59.218;18.218;2023-02-12T01:28:52;16.70;;;8.75;;
13443;SDS011;6794;59.218;18.218;2023-02-12T01:31:20;20.17;;;12.48;;
13443;SDS011;6794;59.218;18.218;2023-02-12T01:33:47;21.42;;;10.57;;
13443;SDS011;6794;59.218;18.218;2023-02-12T01:36:13;16.77;;;9.32;;
13443;SDS011;6794;59.218;18.218;2023-02-12T01:38:40;14.10;;;8.57;;
13443;SDS011;6794;59.218;18.218;2023-02-12T01:41:10;20.17;;;9.55;;
13443;SDS011;6794;59.218;18.218;2023-02-12T01:43:36;14.68;;;8.13;;
13443;SDS011;6794;59.218;18.218;2023-02-12T01:46:03;14.32;;;7.63;;
13443;SDS011;6794;59.218;18.218;2023-02-12T01:48:31;15.07;;;8.43;;
13443;SDS011;6794;59.218;18.218;2023-02-12T01:50:58;8.98;;;6.40;;
13443;SDS011;6794;59.218;18.218;2023-02-12T01:53:27;13.07;;;6.32;;
13443;SDS011;6794;59.218;18.218;2023-02-12T01:55:55;13.45;;;7.22;;
13443;SDS011;6794;59.218;18.218;2023-02-12T01:58:23;7.93;;;4.65;;
13443;SDS011;6794;59.218;18.218;2023-02-12T02:00:49;8.82;;;3.85;;
13443;SDS011;6794;59.218;18.218;2023-02-12T02:03:15;6.15;;;3.70;;
13443;SDS011;6794;59.218;18.218;2023-02-12T02:05:43;4.30;;;2.55;;
13443;SDS011;6794;59.218;18.218;2023-02-12T02:08:10;8.10;;;4.45;;
13443;SDS011;6794;59.218;18.218;2023-02-12T02:10:36;5.43;;;4.15;;
13443;SDS011;6794;59.218;18.218;2023-02-12T02:13:02;5.65;;;3.35;;
13443;SDS011;6794;59.218;18.218;2023-02-12T02:15:48;6.32;;;2.50;;
13443;SDS011;6794;59.218;18.218;2023-02-12T02:18:21;6.97;;;2.97;;
13443;SDS011;6794;59.218;18.218;2023-02-12T02:39:07;5.88;;;1.73;;
13443;SDS011;6794;59.218;18.218;2023-02-12T02:44:08;4.28;;;1.98;;
13443;SDS011;6794;59.218;18.218;2023-02-12T02:46:43;3.65;;;1.60;;
13443;SDS011;6794;59.218;18.218;2023-02-12T02:49:12;5.60;;;1.27;;
13443;SDS011;6794;59.218;18.218;2023-02-12T02:51:43;2.05;;;1.30;;
13443;SDS011;6794;59.218;18.218;2023-02-12T02:54:11;3.65;;;1.33;;
13443;SDS011;6794;59.218;18.218;2023-02-12T02:56:40;6.15;;;1.85;;
13443;SDS011;6794;59.218;18.218;2023-02-12T02:59:10;4.47;;;1.52;;
13443;SDS011;6794;59.218;18.218;2023-02-12T03:01:39;2.97;;;1.30;;
13443;SDS011;6794;59.218;18.218;2023-02-12T03:04:17;3.45;;;1.13;;
13443;SDS011;6794;59.218;18.218;2023-02-12T03:06:50;3.63;;;1.50;;
13443;SDS011;6794;59.218;18.218;2023-02-12T03:12:12;2.60;;;1.50;;
13443;SDS011;6794;59.218;18.218;2023-02-12T03:14:41;4.28;;;1.35;;
13443;SDS011;6794;59.218;18.218;2023-02-12T03:17:52;3.72;;;1.58;;
13443;SDS011;6794;59.218;18.218;2023-02-12T03:20:05;3.92;;;1.40;;
13443;SDS011;6794;59.218;18.218;2023-02-12T03:22:33;2.33;;;1.25;;
13443;SDS011;6794;59.218;18.218;2023-02-12T03:25:06;3.33;;;1.45;;
13443;SDS011;6794;59.218;18.218;2023-02-12T03:27:37;2.70;;;1.45;;
13443;SDS011;6794;59.218;18.218;2023-02-12T03:30:04;3.63;;;1.30;;
13443;SDS011;6794;59.218;18.218;2023-02-12T03:35:22;5.53;;;1.60;;
13443;SDS011;6794;59.218;18.218;2023-02-12T03:37:57;4.82;;;2.35;;
13443;SDS011;6794;59.218;18.218;2023-02-12T03:42:57;4.43;;;1.80;;
13443;SDS011;6794;59.218;18.218;2023-02-12T03:47:54;3.80;;;1.60;;
13443;SDS011;6794;59.218;18.218;2023-02-12T03:50:26;4.03;;;1.60;;
13443;SDS011;6794;59.218;18.218;2023-02-12T03:52:53;3.38;;;1.20;;
13443;SDS011;6794;59.218;18.218;2023-02-12T03:55:19;5.22;;;1.60;;
13443;SDS011;6794;59.218;18.218;2023-02-12T03:57:47;4.43;;;1.40;;
13443;SDS011;6794;59.218;18.218;2023-02-12T04:00:15;6.18;;;1.45;;
13443;SDS011;6794;59.218;18.218;2023-02-12T04:02:42;2.00;;;1.20;;
13443;SDS011;6794;59.218;18.218;2023-02-12T04:05:15;6.43;;;1.40;;
13443;SDS011;6794;59.218;18.218;2023-02-12T04:07:41;2.53;;;1.40;;
13443;SDS011;6794;59.218;18.218;2023-02-12T04:10:07;3.38;;;1.00;;
13443;SDS011;6794;59.218;18.218;2023-02-12T04:12:38;2.78;;;1.35;;
13443;SDS011;6794;59.218;18.218;2023-02-12T04:15:09;4.28;;;1.30;;
13443;SDS011;6794;59.218;18.218;2023-02-12T04:17:43;4.57;;;1.30;;
13443;SDS011;6794;59.218;18.218;2023-02-12T04:20:15;1.70;;;1.10;;
13443;SDS011;6794;59.218;18.218;2023-02-12T04:33:01;4.33;;;1.33;;
13443;SDS011;6794;59.218;18.218;2023-02-12T04:37:56;3.60;;;1.42;;
13443;SDS011;6794;59.218;18.218;2023-02-12T04:40:25;2.63;;;1.20;;
13443;SDS011;6794;59.218;18.218;2023-02-12T04:42:51;2.70;;;1.23;;
13443;SDS011;6794;59.218;18.218;2023-02-12T04:45:20;4.15;;;1.73;;
13443;SDS011;6794;59.218;18.218;2023-02-12T04:47:47;3.13;;;1.80;;
13443;SDS011;6794;59.218;18.218;2023-02-12T04:50:14;3.37;;;1.67;;
13443;SDS011;6794;59.218;18.218;2023-02-12T04:52:40;3.67;;;1.40;;
13443;SDS011;6794;59.218;18.218;2023-02-12T04:55:06;6.83;;;1.40;;
13443;SDS011;6794;59.218;18.218;2023-02-12T04:57:32;2.20;;;0.97;;
13443;SDS011;6794;59.218;18.218;2023-02-12T04:59:58;2.17;;;1.03;;
13443;SDS011;6794;59.218;18.218;2023-02-12T05:02:24;3.80;;;1.07;;
13443;SDS011;6794;59.218;18.218;2023-02-12T05:04:50;2.07;;;1.00;;
13443;SDS011;6794;59.218;18.218;2023-02-12T05:07:16;3.33;;;1.40;;
13443;SDS011;6794;59.218;18.218;2023-02-12T05:09:42;5.50;;;1.23;;
13443;SDS011;6794;59.218;18.218;2023-02-12T05:12:08;4.67;;;1.50;;
13443;SDS011;6794;59.218;18.218;2023-02-12T05:14:34;4.17;;;1.17;;
13443;SDS011;6794;59.218;18.218;2023-02-12T05:17:00;2.20;;;0.87;;
13443;SDS011;6794;59.218;18.218;2023-02-12T05:19:26;6.57;;;1.63;;
13443;SDS011;6794;59.218;18.218;2023-02-12T05:21:52;6.10;;;2.17;;
13443;SDS011;6794;59.218;18.218;2023-02-12T05:24:18;2.93;;;1.40;;
13443;SDS011;6794;59.218;18.218;2023-02-12T05:26:44;4.07;;;1.53;;
13443;SDS011;6794;59.218;18.218;2023-02-12T05:29:10;3.80;;;1.40;;
13443;SDS011;6794;59.218;18.218;2023-02-12T05:31:36;3.90;;;1.10;;
13443;SDS011;6794;59.218;18.218;2023-02-12T05:34:02;4.37;;;1.50;;
13443;SDS011;6794;59.218;18.218;2023-02-12T05:36:28;3.30;;;1.20;;
13443;SDS011;6794;59.218;18.218;2023-02-12T05:38:56;1.70;;;1.10;;
13443;SDS011;6794;59.218;18.218;2023-02-12T05:41:23;2.90;;;1.03;;
13443;SDS011;6794;59.218;18.218;2023-02-12T05:43:49;5.87;;;1.17;;
13443;SDS011;6794;59.218;18.218;2023-02-12T05:46:16;4.23;;;1.40;;
13443;SDS011;6794;59.218;18.218;2023-02-12T05:48:43;4.03;;;1.43;;
13443;SDS011;6794;59.218;18.218;2023-02-12T05:51:10;3.83;;;1.20;;
13443;SDS011;6794;59.218;18.218;2023-02-12T05:53:37;4.40;;;1.30;;
13443;SDS011;6794;59.218;18.218;2023-02-12T05:56:11;3.97;;;1.17;;
13443;SDS011;6794;59.218;18.218;2023-02-12T05:58:38;3.60;;;1.27;;
13443;SDS011;6794;59.218;18.218;2023-02-12T06:01:08;5.37;;;1.20;;
13443;SDS011;6794;59.218;18.218;2023-02-12T06:03:34;2.97;;;1.40;;
13443;SDS011;6794;59.218;18.218;2023-02-12T06:06:00;1.23;;;0.93;;
13443;SDS011;6794;59.218;18.218;2023-02-12T06:08:26;5.93;;;1.20;;
13443;SDS011;6794;59.218;18.218;2023-02-12T06:10:52;3.63;;;2.00;;
13443;SDS011;6794;59.218;18.218;2023-02-12T06:13:18;3.57;;;1.17;;
13443;SDS011;6794;59.218;18.218;2023-02-12T06:15:44;5.13;;;1.20;;
13443;SDS011;6794;59.218;18.218;2023-02-12T06:18:10;4.00;;;1.13;;
13443;SDS011;6794;59.218;18.218;2023-02-12T06:20:37;4.40;;;1.40;;
13443;SDS011;6794;59.218;18.218;2023-02-12T06:23:04;5.03;;;1.80;;
13443;SDS011;6794;59.218;18.218;2023-02-12T06:25:30;3.90;;;1.33;;
13443;SDS011;6794;59.218;18.218;2023-02-12T06:27:56;5.33;;;1.60;;
13443;SDS011;6794;59.218;18.218;2023-02-12T06:30:22;2.80;;;1.07;;
13443;SDS011;6794;59.218;18.218;2023-02-12T06:32:48;2.67;;;1.50;;
13443;SDS011;6794;59.218;18.218;2023-02-12T06:35:14;3.67;;;1.80;;
13443;SDS011;6794;59.218;18.218;2023-02-12T06:37:40;3.70;;;1.27;;
13443;SDS011;6794;59.218;18.218;2023-02-12T06:40:06;3.63;;;1.20;;
13443;SDS011;6794;59.218;18.218;2023-02-12T06:42:33;2.37;;;1.23;;
13443;SDS011;6794;59.218;18.218;2023-02-12T06:44:59;3.90;;;1.53;;
13443;SDS011;6794;59.218;18.218;2023-02-12T06:47:25;3.67;;;1.37;;
13443;SDS011;6794;59.218;18.218;2023-02-12T06:49:51;5.13;;;1.60;;
13443;SDS011;6794;59.218;18.218;2023-02-12T06:52:17;2.87;;;1.20;;
13443;SDS011;6794;59.218;18.218;2023-02-12T06:54:45;1.93;;;1.40;;
13443;SDS011;6794;59.218;18.218;2023-02-12T06:57:11;2.40;;;1.00;;
13443;SDS011;6794;59.218;18.218;2023-02-12T06:59:37;2.53;;;1.20;;
13443;SDS011;6794;59.218;18.218;2023-02-12T07:02:03;4.13;;;1.67;;
13443;SDS011;6794;59.218;18.218;2023-02-12T07:04:29;3.20;;;1.10;;
13443;SDS011;6794;59.218;18.218;2023-02-12T07:06:55;3.80;;;1.13;;
13443;SDS011;6794;59.218;18.218;2023-02-12T07:09:21;3.45;;;1.42;;
13443;SDS011;6794;59.218;18.218;2023-02-12T07:11:47;4.20;;;1.33;;
13443;SDS011;6794;59.218;18.218;2023-02-12T07:14:14;2.13;;;1.33;;
13443;SDS011;6794;59.218;18.218;2023-02-12T07:16:40;4.43;;;1.23;;
13443;SDS011;6794;59.218;18.218;2023-02-12T07:19:06;2.60;;;1.20;;
13443;SDS011;6794;59.218;18.218;2023-02-12T07:21:32;1.87;;;1.30;;
13443;SDS011;6794;59.218;18.218;2023-02-12T07:23:58;3.53;;;1.23;;
13443;SDS011;6794;59.218;18.218;2023-02-12T07:26:24;3.83;;;1.37;;
13443;SDS011;6794;59.218;18.218;2023-02-12T07:28:50;2.83;;;1.50;;
13443;SDS011;6794;59.218;18.218;2023-02-12T07:31:17;4.43;;;2.27;;
13443;SDS011;6794;59.218;18.218;2023-02-12T07:33:43;5.77;;;2.37;;
13443;SDS011;6794;59.218;18.218;2023-02-12T07:36:10;6.67;;;2.83;;
13443;SDS011;6794;59.218;18.218;2023-02-12T07:38:37;3.37;;;1.93;;
13443;SDS011;6794;59.218;18.218;2023-02-12T07:41:10;2.53;;;1.70;;
13443;SDS011;6794;59.218;18.218;2023-02-12T07:43:37;2.30;;;1.43;;
13443;SDS011;6794;59.218;18.218;2023-02-12T07:46:07;3.70;;;1.50;;
13443;SDS011;6794;59.218;18.218;2023-02-12T07:48:33;7.20;;;2.20;;
13443;SDS011;6794;59.218;18.218;2023-02-12T07:51:06;5.20;;;1.67;;
13443;SDS011;6794;59.218;18.218;2023-02-12T07:53:32;5.17;;;1.73;;
13443;SDS011;6794;59.218;18.218;2023-02-12T07:56:32;5.45;;;2.00;;
13443;SDS011;6794;59.218;18.218;2023-02-12T07:58:56;6.17;;;1.73;;
13443;SDS011;6794;59.218;18.218;2023-02-12T08:01:23;3.10;;;1.70;;
13443;SDS011;6794;59.218;18.218;2023-02-12T08:03:53;3.90;;;1.83;;
13443;SDS011;6794;59.218;18.218;2023-02-12T08:06:23;4.47;;;2.03;;
13443;SDS011;6794;59.218;18.218;2023-02-12T08:08:50;5.63;;;1.70;;
13443;SDS011;6794;59.218;18.218;2023-02-12T08:11:17;7.10;;;2.87;;
13443;SDS011;6794;59.218;18.218;2023-02-12T08:13:43;4.37;;;1.57;;
13443;SDS011;6794;59.218;18.218;2023-02-12T08:16:16;3.63;;;2.03;;
13443;SDS011;6794;59.218;18.218;2023-02-12T08:18:43;5.93;;;1.43;;
13443;SDS011;6794;59.218;18.218;2023-02-12T08:21:13;10.07;;;2.63;;
13443;SDS011;6794;59.218;18.218;2023-02-12T08:23:39;3.17;;;1.80;;
13443;SDS011;6794;59.218;18.218;2023-02-12T08:28:39;5.70;;;1.87;;
13443;SDS011;6794;59.218;18.218;2023-02-12T08:31:07;7.13;;;2.50;;
13443;SDS011;6794;59.218;18.218;2023-02-12T08:33:34;3.50;;;1.90;;
13443;SDS011;6794;59.218;18.218;2023-02-12T08:36:03;3.33;;;2.27;;
13443;SDS011;6794;59.218;18.218;2023-02-12T08:38:30;6.03;;;1.80;;
13443;SDS011;6794;59.218;18.218;2023-02-12T08:40:59;4.70;;;1.90;;
13443;SDS011;6794;59.218;18.218;2023-02-12T08:43:25;4.20;;;1.92;;
13443;SDS011;6794;59.218;18.218;2023-02-12T08:45:51;5.57;;;2.00;;
13443;SDS011;6794;59.218;18.218;2023-02-12T08:48:19;6.67;;;2.20;;
13443;SDS011;6794;59.218;18.218;2023-02-12T08:50:45;4.83;;;2.07;;
13443;SDS011;6794;59.218;18.218;2023-02-12T08:53:11;9.13;;;2.10;;
13443;SDS011;6794;59.218;18.218;2023-02-12T08:55:37;8.63;;;2.33;;
13443;SDS011;6794;59.218;18.218;2023-02-12T08:58:03;5.17;;;1.93;;
13443;SDS011;6794;59.218;18.218;2023-02-12T09:00:29;4.50;;;2.17;;
13443;SDS011;6794;59.218;18.218;2023-02-12T09:02:55;8.20;;;2.20;;
13443;SDS011;6794;59.218;18.218;2023-02-12T09:05:21;6.33;;;1.97;;
13443;SDS011;6794;59.218;18.218;2023-02-12T09:07:47;7.27;;;1.93;;
13443;SDS011;6794;59.218;18.218;2023-02-12T09:10:13;5.27;;;2.07;;
13443;SDS011;6794;59.218;18.218;2023-02-12T09:12:39;6.80;;;2.10;;
13443;SDS011;6794;59.218;18.218;2023-02-12T09:15:06;7.70;;;2.20;;
13443;SDS011;6794;59.218;18.218;2023-02-12T09:17:32;8.47;;;2.10;;
13443;SDS011;6794;59.218;18.218;2023-02-12T09:19:58;4.67;;;1.90;;
13443;SDS011;6794;59.218;18.218;2023-02-12T09:22:26;6.27;;;2.00;;
13443;SDS011;6794;59.218;18.218;2023-02-12T09:24:52;7.70;;;2.53;;
13443;SDS011;6794;59.218;18.218;2023-02-12T09:27:18;8.10;;;2.73;;
13443;SDS011;6794;59.218;18.218;2023-02-12T09:29:44;6.77;;;2.53;;
13443;SDS011;6794;59.218;18.218;2023-02-12T09:32:10;9.82;;;2.80;;
13443;SDS011;6794;59.218;18.218;2023-02-12T09:34:36;7.60;;;2.20;;
13443;SDS011;6794;59.218;18.218;2023-02-12T09:37:02;6.70;;;1.70;;
13443;SDS011;6794;59.218;18.218;2023-02-12T09:39:28;5.50;;;2.73;;
13443;SDS011;6794;59.218;18.218;2023-02-12T09:42:00;8.37;;;2.13;;
13443;SDS011;6794;59.218;18.218;2023-02-12T09:44:35;7.47;;;2.13;;
13443;SDS011;6794;59.218;18.218;2023-02-12T09:47:24;9.63;;;2.37;;
13443;SDS011;6794;59.218;18.218;2023-02-12T09:49:55;8.67;;;1.70;;
13443;SDS011;6794;59.218;18.218;2023-02-12T09:52:24;8.63;;;2.13;;
13443;SDS011;6794;59.218;18.218;2023-02-12T09:54:51;10.03;;;2.00;;
13443;SDS011;6794;59.218;18.218;2023-02-12T09:57:30;4.70;;;1.87;;
13443;SDS011;6794;59.218;18.218;2023-02-12T10:00:06;6.93;;;2.00;;
13443;SDS011;6794;59.218;18.218;2023-02-12T10:02:36;9.10;;;2.33;;
13443;SDS011;6794;59.218;18.218;2023-02-12T10:05:03;7.17;;;1.70;;
13443;SDS011;6794;59.218;18.218;2023-02-12T10:10:21;9.77;;;2.17;;
13443;SDS011;6794;59.218;18.218;2023-02-12T10:12:59;8.73;;;1.93;;
13443;SDS011;6794;59.218;18.218;2023-02-12T10:15:37;8.47;;;2.30;;
13443;SDS011;6794;59.218;18.218;2023-02-12T10:18:20;7.20;;;2.17;;
13443;SDS011;6794;59.218;18.218;2023-02-12T10:21:01;12.73;;;2.67;;
13443;SDS011;6794;59.218;18.218;2023-02-12T10:28:42;6.43;;;2.37;;
13443;SDS011;6794;59.218;18.218;2023-02-12T10:31:16;6.40;;;2.10;;
13443;SDS011;6794;59.218;18.218;2023-02-12T10:33:45;12.40;;;3.17;;
13443;SDS011;6794;59.218;18.218;2023-02-12T10:38:54;12.30;;;2.30;;
13443;SDS011;6794;59.218;18.218;2023-02-12T10:41:23;7.40;;;2.57;;
13443;SDS011;6794;59.218;18.218;2023-02-12T10:43:50;13.40;;;2.20;;
13443;SDS011;6794;59.218;18.218;2023-02-12T10:46:17;10.83;;;2.50;;
13443;SDS011;6794;59.218;18.218;2023-02-12T10:48:44;11.10;;;2.80;;
13443;SDS011;6794;59.218;18.218;2023-02-12T10:53:39;7.67;;;2.30;;
13443;SDS011;6794;59.218;18.218;2023-02-12T10:58:34;7.13;;;2.60;;
13443;SDS011;6794;59.218;18.218;2023-02-12T11:01:00;11.10;;;2.57;;
13443;SDS011;6794;59.218;18.218;2023-02-12T11:03:28;10.27;;;2.40;;
13443;SDS011;6794;59.218;18.218;2023-02-12T11:06:07;6.37;;;2.10;;
13443;SDS011;6794;59.218;18.218;2023-02-12T11:08:36;7.45;;;2.80;;
13443;SDS011;6794;59.218;18.218;2023-02-12T11:11:13;8.93;;;2.40;;
13443;SDS011;6794;59.218;18.218;2023-02-12T11:13:40;7.67;;;2.40;;
13443;SDS011;6794;59.218;18.218;2023-02-12T11:16:09;10.30;;;2.90;;
13443;SDS011;6794;59.218;18.218;2023-02-12T11:18:35;7.87;;;2.00;;
13443;SDS011;6794;59.218;18.218;2023-02-12T11:21:05;7.90;;;2.13;;
13443;SDS011;6794;59.218;18.218;2023-02-12T11:23:39;6.10;;;2.20;;
13443;SDS011;6794;59.218;18.218;2023-02-12T11:26:06;10.03;;;2.70;;
13443;SDS011;6794;59.218;18.218;2023-02-12T11:28:33;11.50;;;2.90;;
13443;SDS011;6794;59.218;18.218;2023-02-12T11:31:01;9.07;;;2.47;;
13443;SDS011;6794;59.218;18.218;2023-02-12T11:33:34;8.30;;;2.60;;
13443;SDS011;6794;59.218;18.218;2023-02-12T11:36:22;5.23;;;2.00;;
13443;SDS011;6794;59.218;18.218;2023-02-12T11:38:54;8.60;;;2.60;;
13443;SDS011;6794;59.218;18.218;2023-02-12T11:41:34;9.77;;;2.67;;
13443;SDS011;6794;59.218;18.218;2023-02-12T11:44:01;9.67;;;2.43;;
13443;SDS011;6794;59.218;18.218;2023-02-12T11:46:33;7.17;;;2.20;;
13443;SDS011;6794;59.218;18.218;2023-02-12T11:48:59;11.20;;;2.70;;
13443;SDS011;6794;59.218;18.218;2023-02-12T11:51:29;7.93;;;2.17;;
13443;SDS011;6794;59.218;18.218;2023-02-12T11:53:57;6.47;;;2.10;;
13443;SDS011;6794;59.218;18.218;2023-02-12T11:56:24;6.60;;;2.23;;
13443;SDS011;6794;59.218;18.218;2023-02-12T11:59:20;9.97;;;3.13;;
13443;SDS011;6794;59.218;18.218;2023-02-12T12:01:50;8.50;;;2.50;;
13443;SDS011;6794;59.218;18.218;2023-02-12T12:04:17;9.15;;;2.30;;
13443;SDS011;6794;59.218;18.218;2023-02-12T12:06:50;9.10;;;2.20;;
13443;SDS011;6794;59.218;18.218;2023-02-12T12:09:23;7.13;;;2.40;;
13443;SDS011;6794;59.218;18.218;2023-02-12T12:11:56;8.80;;;2.23;;
13443;SDS011;6794;59.218;18.218;2023-02-12T12:14:41;4.67;;;2.10;;
13443;SDS011;6794;59.218;18.218;2023-02-12T12:18:02;6.20;;;2.13;;
13443;SDS011;6794;59.218;18.218;2023-02-12T12:20:40;10.02;;;3.15;;
13443;SDS011;6794;59.218;18.218;2023-02-12T12:25:49;9.67;;;2.73;;
13443;SDS011;6794;59.218;18.218;2023-02-12T12:28:36;6.40;;;2.37;;
13443;SDS011;6794;59.218;18.218;2023-02-12T12:31:06;8.07;;;3.00;;
13443;SDS011;6794;59.218;18.218;2023-02-12T12:33:36;5.80;;;2.33;;
13443;SDS011;6794;59.218;18.218;2023-02-12T12:44:00;5.73;;;2.20;;
13443;SDS011;6794;59.218;18.218;2023-02-12T12:46:53;9.30;;;2.70;;
13443;SDS011;6794;59.218;18.218;2023-02-12T12:52:30;8.52;;;2.78;;
13443;SDS011;6794;59.218;18.218;2023-02-12T12:54:32;9.13;;;2.30;;
13443;SDS011;6794;59.218;18.218;2023-02-12T12:57:07;8.87;;;2.33;;
13443;SDS011;6794;59.218;18.218;2023-02-12T13:15:06;8.63;;;2.37;;
13443;SDS011;6794;59.218;18.218;2023-02-12T13:17:35;4.07;;;2.00;;
13443;SDS011;6794;59.218;18.218;2023-02-12T13:27:54;8.20;;;2.20;;
13443;SDS011;6794;59.218;18.218;2023-02-12T13:30:26;11.63;;;3.67;;
13443;SDS011;6794;59.218;18.218;2023-02-12T13:33:02;14.23;;;3.20;;
13443;SDS011;6794;59.218;18.218;2023-02-12T13:35:29;5.27;;;2.23;;
13443;SDS011;6794;59.218;18.218;2023-02-12T13:37:56;9.73;;;2.40;;
13443;SDS011;6794;59.218;18.218;2023-02-12T13:40:24;6.77;;;2.20;;
13443;SDS011;6794;59.218;18.218;2023-02-12T13:45:25;9.00;;;2.23;;
13443;SDS011;6794;59.218;18.218;2023-02-12T13:50:39;10.73;;;2.90;;
13443;SDS011;6794;59.218;18.218;2023-02-12T13:53:18;9.40;;;2.77;;
13443;SDS011;6794;59.218;18.218;2023-02-12T14:01:04;8.80;;;2.37;;
13443;SDS011;6794;59.218;18.218;2023-02-12T14:03:34;9.47;;;2.77;;
13443;SDS011;6794;59.218;18.218;2023-02-12T14:06:10;10.13;;;2.67;;
13443;SDS011;6794;59.218;18.218;2023-02-12T14:08:39;9.93;;;3.40;;
13443;SDS011;6794;59.218;18.218;2023-02-12T14:11:07;11.33;;;3.00;;
13443;SDS011;6794;59.218;18.218;2023-02-12T14:13:35;13.55;;;3.05;;
13443;SDS011;6794;59.218;18.218;2023-02-12T14:21:38;7.27;;;2.53;;
13443;SDS011;6794;59.218;18.218;2023-02-12T14:26:50;9.63;;;2.53;;
13443;SDS011;6794;59.218;18.218;2023-02-12T14:29:20;8.87;;;2.80;;
13443;SDS011;6794;59.218;18.218;2023-02-12T14:31:48;4.60;;;2.13;;
13443;SDS011;6794;59.218;18.218;2023-02-12T14:36:43;9.43;;;2.55;;
13443;SDS011;6794;59.218;18.218;2023-02-12T14:41:52;11.43;;;3.33;;
13443;SDS011;6794;59.218;18.218;2023-02-12T14:49:17;6.87;;;2.53;;
13443;SDS011;6794;59.218;18.218;2023-02-12T14:54:26;8.50;;;2.43;;
13443;SDS011;6794;59.218;18.218;2023-02-12T14:56:54;9.93;;;2.60;;
13443;SDS011;6794;59.218;18.218;2023-02-12T14:59:22;8.63;;;3.00;;
13443;SDS011;6794;59.218;18.218;2023-02-12T15:01:49;8.97;;;2.43;;
13443;SDS011;6794;59.218;18.218;2023-02-12T15:04:20;10.00;;;2.70;;
13443;SDS011;6794;59.218;18.218;2023-02-12T15:06:59;9.60;;;3.05;;
13443;SDS011;6794;59.218;18.218;2023-02-12T15:09:33;9.30;;;3.00;;
13443;SDS011;6794;59.218;18.218;2023-02-12T15:14:27;7.23;;;2.87;;
13443;SDS011;6794;59.218;18.218;2023-02-12T15:17:06;9.30;;;2.87;;
13443;SDS011;6794;59.218;18.218;2023-02-12T15:19:45;10.17;;;3.37;;
13443;SDS011;6794;59.218;18.218;2023-02-12T15:22:28;11.67;;;3.50;;
13443;SDS011;6794;59.218;18.218;2023-02-12T15:27:41;11.27;;;3.20;;
13443;SDS011;6794;59.218;18.218;2023-02-12T15:30:13;5.50;;;2.60;;
13443;SDS011;6794;59.218;18.218;2023-02-12T15:32:39;9.17;;;2.67;;
13443;SDS011;6794;59.218;18.218;2023-02-12T15:35:20;9.37;;;2.73;;
13443;SDS011;6794;59.218;18.218;2023-02-12T15:37:48;9.25;;;2.97;;
13443;SDS011;6794;59.218;18.218;2023-02-12T15:40:14;9.30;;;2.73;;
13443;SDS011;6794;59.218;18.218;2023-02-12T15:42:50;9.97;;;2.47;;
13443;SDS011;6794;59.218;18.218;2023-02-12T15:45:18;7.70;;;2.40;;
13443;SDS011;6794;59.218;18.218;2023-02-12T15:47:45;5.53;;;2.23;;
13443;SDS011;6794;59.218;18.218;2023-02-12T15:50:19;7.50;;;2.30;;
13443;SDS011;6794;59.218;18.218;2023-02-12T15:52:46;11.80;;;2.73;;
13443;SDS011;6794;59.218;18.218;2023-02-12T15:55:19;7.70;;;3.07;;
13443;SDS011;6794;59.218;18.218;2023-02-12T15:57:49;12.73;;;2.93;;
13443;SDS011;6794;59.218;18.218;2023-02-12T16:02:50;7.37;;;2.93;;
13443;SDS011;6794;59.218;18.218;2023-02-12T16:05:17;7.93;;;3.00;;
13443;SDS011;6794;59.218;18.218;2023-02-12T16:07:43;7.93;;;3.13;;
13443;SDS011;6794;59.218;18.218;2023-02-12T16:10:13;6.50;;;3.03;;
13443;SDS011;6794;59.218;18.218;2023-02-12T16:12:40;7.77;;;2.97;;
13443;SDS011;6794;59.218;18.218;2023-02-12T16:15:21;9.80;;;3.58;;
13443;SDS011;6794;59.218;18.218;2023-02-12T16:17:47;9.50;;;3.27;;
13443;SDS011;6794;59.218;18.218;2023-02-12T16:22:42;12.20;;;2.97;;
13443;SDS011;6794;59.218;18.218;2023-02-12T16:25:16;12.23;;;3.30;;
13443;SDS011;6794;59.218;18.218;2023-02-12T16:30:33;10.27;;;3.40;;
13443;SDS011;6794;59.218;18.218;2023-02-12T16:33:02;7.10;;;3.33;;
13443;SDS011;6794;59.218;18.218;2023-02-12T16:35:32;11.10;;;3.63;;
13443;SDS011;6794;59.218;18.218;2023-02-12T16:40:44;13.87;;;2.80;;
13443;SDS011;6794;59.218;18.218;2023-02-12T16:43:30;10.50;;;3.60;;
13443;SDS011;6794;59.218;18.218;2023-02-12T16:46:00;9.40;;;3.80;;
13443;SDS011;6794;59.218;18.218;2023-02-12T16:48:27;12.40;;;3.60;;
13443;SDS011;6794;59.218;18.218;2023-02-12T16:50:56;14.73;;;3.70;;
13443;SDS011;6794;59.218;18.218;2023-02-12T16:53:27;10.20;;;3.87;;
13443;SDS011;6794;59.218;18.218;2023-02-12T16:55:59;10.93;;;4.88;;
13443;SDS011;6794;59.218;18.218;2023-02-12T16:58:26;9.70;;;4.13;;
13443;SDS011;6794;59.218;18.218;2023-02-12T17:00:52;12.60;;;3.50;;
13443;SDS011;6794;59.218;18.218;2023-02-12T17:03:19;11.20;;;4.00;;
13443;SDS011;6794;59.218;18.218;2023-02-12T17:05:45;7.60;;;3.93;;
13443;SDS011;6794;59.218;18.218;2023-02-12T17:08:14;10.03;;;4.10;;
13443;SDS011;6794;59.218;18.218;2023-02-12T17:10:40;14.13;;;3.60;;
13443;SDS011;6794;59.218;18.218;2023-02-12T17:13:06;11.17;;;4.00;;
13443;SDS011;6794;59.218;18.218;2023-02-12T17:15:34;9.27;;;3.97;;
13443;SDS011;6794;59.218;18.218;2023-02-12T17:18:02;8.33;;;3.83;;
13443;SDS011;6794;59.218;18.218;2023-02-12T17:20:28;8.20;;;4.07;;